sensor_id;sensor_type;location;lat;lon;timestamp;temperature;humidity
52941;DHT22;62001;53.366;6.636;2022-11-20T00:00:45;0.70;99.90
52941;DHT22;62001;53.366;6.636;2022-11-20T00:03:11;0.70;99.90
52941;DHT22;62001;53.366;6.636;2022-11-20T00:05:37;0.80;99.90
52941;DHT22;62001;53.366;6.636;2022-11-20T00:08:04;0.70;99.90
52941;DHT22;62001;53.366;6.636;2022-11-20T00:10:30;0.80;99.90
52941;DHT22;62001;53.366;6.636;2022-11-20T00:12:58;0.70;99.90
52941;DHT22;62001;53.366;6.636;2022-11-20T00:15:24;0.80;99.90
52941;DHT22;62001;53.366;6.636;2022-11-20T00:17:50;0.80;99.90
52941;DHT22;62001;53.366;6.636;2022-11-20T00:20:16;0.80;99.90
52941;DHT22;62001;53.366;6.636;2022-11-20T00:22:42;0.80;99.90
52941;DHT22;62001;53.366;6.636;2022-11-20T00:25:08;0.80;99.90
52941;DHT22;62001;53.366;6.636;2022-11-20T00:27:34;0.80;99.90
52941;DHT22;62001;53.366;6.636;2022-11-20T00:29:59;0.80;99.90
52941;DHT22;62001;53.366;6.636;2022-11-20T00:32:25;0.80;99.90
52941;DHT22;62001;53.366;6.636;2022-11-20T00:34:51;0.80;99.90
52941;DHT22;62001;53.366;6.636;2022-11-20T00:37:17;0.80;99.90
52941;DHT22;62001;53.366;6.636;2022-11-20T00:39:43;0.80;99.90
52941;DHT22;62001;53.366;6.636;2022-11-20T00:42:08;0.80;99.90
52941;DHT22;62001;53.366;6.636;2022-11-20T00:44:34;0.80;99.90
52941;DHT22;62001;53.366;6.636;2022-11-20T00:47:00;0.80;99.90
52941;DHT22;62001;53.366;6.636;2022-11-20T00:49:26;0.80;99.90
52941;DHT22;62001;53.366;6.636;2022-11-20T00:51:51;0.90;99.90
52941;DHT22;62001;53.366;6.636;2022-11-20T00:54:17;0.80;99.90
52941;DHT22;62001;53.366;6.636;2022-11-20T00:56:43;0.80;99.90
52941;DHT22;62001;53.366;6.636;2022-11-20T00:59:09;0.80;99.90
52941;DHT22;62001;53.366;6.636;2022-11-20T01:01:36;0.80;99.90
52941;DHT22;62001;53.366;6.636;2022-11-20T01:04:02;0.80;99.90
52941;DHT22;62001;53.366;6.636;2022-11-20T01:06:30;0.80;99.90
52941;DHT22;62001;53.366;6.636;2022-11-20T01:08:58;0.80;99.90
52941;DHT22;62001;53.366;6.636;2022-11-20T01:11:29;0.80;99.90
52941;DHT22;62001;53.366;6.636;2022-11-20T01:13:56;0.80;99.90
52941;DHT22;62001;53.366;6.636;2022-11-20T01:16:28;0.90;99.90
52941;DHT22;62001;53.366;6.636;2022-11-20T01:18:56;0.90;99.90
52941;DHT22;62001;53.366;6.636;2022-11-20T01:21:25;0.90;99.90
52941;DHT22;62001;53.366;6.636;2022-11-20T01:23:52;0.90;99.90
52941;DHT22;62001;53.366;6.636;2022-11-20T01:26:22;0.90;99.90
52941;DHT22;62001;53.366;6.636;2022-11-20T01:28:49;0.90;99.90
52941;DHT22;62001;53.366;6.636;2022-11-20T01:31:19;0.90;99.90
52941;DHT22;62001;53.366;6.636;2022-11-20T01:33:47;1.00;99.90
52941;DHT22;62001;53.366;6.636;2022-11-20T01:36:14;1.00;99.90
52941;DHT22;62001;53.366;6.636;2022-11-20T01:38:41;1.00;99.90
52941;DHT22;62001;53.366;6.636;2022-11-20T01:41:07;1.00;99.90
52941;DHT22;62001;53.366;6.636;2022-11-20T01:43:34;1.00;99.90
52941;DHT22;62001;53.366;6.636;2022-11-20T01:46:17;1.00;99.90
52941;DHT22;62001;53.366;6.636;2022-11-20T01:51:31;1.00;99.90
52941;DHT22;62001;53.366;6.636;2022-11-20T01:54:01;1.00;99.90
52941;DHT22;62001;53.366;6.636;2022-11-20T01:56:28;1.00;99.90
52941;DHT22;62001;53.366;6.636;2022-11-20T01:58:59;1.00;99.90
52941;DHT22;62001;53.366;6.636;2022-11-20T02:01:26;1.00;99.90
52941;DHT22;62001;53.366;6.636;2022-11-20T02:03:52;1.00;99.90
52941;DHT22;62001;53.366;6.636;2022-11-20T02:06:39;1.00;99.90
52941;DHT22;62001;53.366;6.636;2022-11-20T02:09:06;1.00;99.90
52941;DHT22;62001;53.366;6.636;2022-11-20T02:11:32;0.90;99.90
52941;DHT22;62001;53.366;6.636;2022-11-20T02:13:58;1.00;99.90
52941;DHT22;62001;53.366;6.636;2022-11-20T02:16:29;0.90;99.90
52941;DHT22;62001;53.366;6.636;2022-11-20T02:18:58;0.90;99.90
52941;DHT22;62001;53.366;6.636;2022-11-20T02:21:37;0.90;99.90
52941;DHT22;62001;53.366;6.636;2022-11-20T02:24:32;0.90;99.90
52941;DHT22;62001;53.366;6.636;2022-11-20T02:27:10;0.90;99.90
52941;DHT22;62001;53.366;6.636;2022-11-20T02:32:32;0.90;99.90
52941;DHT22;62001;53.366;6.636;2022-11-20T02:34:58;0.90;99.90
52941;DHT22;62001;53.366;6.636;2022-11-20T02:37:30;0.90;99.90
52941;DHT22;62001;53.366;6.636;2022-11-20T02:39:57;0.90;99.90
52941;DHT22;62001;53.366;6.636;2022-11-20T02:42:23;0.90;99.90
52941;DHT22;62001;53.366;6.636;2022-11-20T02:44:49;0.90;99.90
52941;DHT22;62001;53.366;6.636;2022-11-20T02:47:15;0.90;99.90
52941;DHT22;62001;53.366;6.636;2022-11-20T02:49:40;0.90;99.90
52941;DHT22;62001;53.366;6.636;2022-11-20T02:52:06;0.90;99.90
52941;DHT22;62001;53.366;6.636;2022-11-20T02:54:32;0.90;99.90
52941;DHT22;62001;53.366;6.636;2022-11-20T02:56:58;0.90;99.90
52941;DHT22;62001;53.366;6.636;2022-11-20T02:59:25;0.90;99.90
52941;DHT22;62001;53.366;6.636;2022-11-20T03:01:51;0.90;99.90
52941;DHT22;62001;53.366;6.636;2022-11-20T03:04:17;0.90;99.90
52941;DHT22;62001;53.366;6.636;2022-11-20T03:06:43;0.90;99.90
52941;DHT22;62001;53.366;6.636;2022-11-20T03:09:09;0.90;99.90
52941;DHT22;62001;53.366;6.636;2022-11-20T03:11:35;0.90;99.90
52941;DHT22;62001;53.366;6.636;2022-11-20T03:14:04;0.90;99.90
52941;DHT22;62001;53.366;6.636;2022-11-20T03:16:31;0.90;99.90
52941;DHT22;62001;53.366;6.636;2022-11-20T03:18:57;0.90;99.90
52941;DHT22;62001;53.366;6.636;2022-11-20T03:21:23;0.90;99.90
52941;DHT22;62001;53.366;6.636;2022-11-20T03:23:49;0.90;99.90
52941;DHT22;62001;53.366;6.636;2022-11-20T03:26:20;0.90;99.90
52941;DHT22;62001;53.366;6.636;2022-11-20T03:28:48;1.00;99.90
52941;DHT22;62001;53.366;6.636;2022-11-20T03:31:16;0.90;99.90
52941;DHT22;62001;53.366;6.636;2022-11-20T03:33:42;1.00;99.90
52941;DHT22;62001;53.366;6.636;2022-11-20T03:36:11;1.00;99.90
52941;DHT22;62001;53.366;6.636;2022-11-20T03:38:37;0.90;99.90
52941;DHT22;62001;53.366;6.636;2022-11-20T03:41:08;0.90;99.90
52941;DHT22;62001;53.366;6.636;2022-11-20T03:43:35;0.90;99.90
52941;DHT22;62001;53.366;6.636;2022-11-20T03:46:02;0.90;99.90
52941;DHT22;62001;53.366;6.636;2022-11-20T03:48:28;0.90;99.90
52941;DHT22;62001;53.366;6.636;2022-11-20T03:53:33;1.00;99.90
52941;DHT22;62001;53.366;6.636;2022-11-20T03:55:59;1.00;99.90
52941;DHT22;62001;53.366;6.636;2022-11-20T03:58:25;1.00;99.90
52941;DHT22;62001;53.366;6.636;2022-11-20T04:00:50;1.00;99.90
52941;DHT22;62001;53.366;6.636;2022-11-20T04:03:16;1.00;99.90
52941;DHT22;62001;53.366;6.636;2022-11-20T04:05:42;1.00;99.90
52941;DHT22;62001;53.366;6.636;2022-11-20T04:08:08;1.00;99.90
52941;DHT22;62001;53.366;6.636;2022-11-20T04:10:34;1.00;99.90
52941;DHT22;62001;53.366;6.636;2022-11-20T04:12:59;1.10;99.90
52941;DHT22;62001;53.366;6.636;2022-11-20T04:15:25;1.10;99.90
52941;DHT22;62001;53.366;6.636;2022-11-20T04:17:51;1.10;99.90
52941;DHT22;62001;53.366;6.636;2022-11-20T04:20:17;1.10;99.90
52941;DHT22;62001;53.366;6.636;2022-11-20T04:22:42;1.00;99.90
52941;DHT22;62001;53.366;6.636;2022-11-20T04:25:08;1.00;99.90
52941;DHT22;62001;53.366;6.636;2022-11-20T04:27:34;1.00;99.90
52941;DHT22;62001;53.366;6.636;2022-11-20T04:30:00;1.00;99.90
52941;DHT22;62001;53.366;6.636;2022-11-20T04:32:26;1.00;99.90
52941;DHT22;62001;53.366;6.636;2022-11-20T04:34:51;1.00;99.90
52941;DHT22;62001;53.366;6.636;2022-11-20T04:37:17;1.00;99.90
52941;DHT22;62001;53.366;6.636;2022-11-20T04:39:43;1.00;99.90
52941;DHT22;62001;53.366;6.636;2022-11-20T04:42:10;1.00;99.90
52941;DHT22;62001;53.366;6.636;2022-11-20T04:44:54;1.00;99.90
52941;DHT22;62001;53.366;6.636;2022-11-20T04:47:20;1.00;99.90
52941;DHT22;62001;53.366;6.636;2022-11-20T04:49:46;1.00;99.90
52941;DHT22;62001;53.366;6.636;2022-11-20T04:52:12;1.00;99.90
52941;DHT22;62001;53.366;6.636;2022-11-20T04:54:38;1.00;99.90
52941;DHT22;62001;53.366;6.636;2022-11-20T04:57:04;1.00;99.90
52941;DHT22;62001;53.366;6.636;2022-11-20T04:59:29;1.00;99.90
52941;DHT22;62001;53.366;6.636;2022-11-20T05:01:55;0.90;99.90
52941;DHT22;62001;53.366;6.636;2022-11-20T05:04:21;0.90;99.90
52941;DHT22;62001;53.366;6.636;2022-11-20T05:06:47;0.90;99.90
52941;DHT22;62001;53.366;6.636;2022-11-20T05:09:13;1.00;99.90
52941;DHT22;62001;53.366;6.636;2022-11-20T05:11:39;0.90;99.90
52941;DHT22;62001;53.366;6.636;2022-11-20T05:14:04;0.90;99.90
52941;DHT22;62001;53.366;6.636;2022-11-20T05:16:30;0.90;99.90
52941;DHT22;62001;53.366;6.636;2022-11-20T05:18:57;0.90;99.90
52941;DHT22;62001;53.366;6.636;2022-11-20T05:21:22;0.90;99.90
52941;DHT22;62001;53.366;6.636;2022-11-20T05:23:48;0.90;99.90
52941;DHT22;62001;53.366;6.636;2022-11-20T05:26:19;0.80;99.90
52941;DHT22;62001;53.366;6.636;2022-11-20T05:28:47;0.90;99.90
52941;DHT22;62001;53.366;6.636;2022-11-20T05:31:16;0.80;99.90
52941;DHT22;62001;53.366;6.636;2022-11-20T05:33:43;0.90;99.90
52941;DHT22;62001;53.366;6.636;2022-11-20T05:36:11;0.90;99.90
52941;DHT22;62001;53.366;6.636;2022-11-20T05:38:37;0.90;99.90
52941;DHT22;62001;53.366;6.636;2022-11-20T05:41:11;0.90;99.90
52941;DHT22;62001;53.366;6.636;2022-11-20T05:43:39;0.90;99.90
52941;DHT22;62001;53.366;6.636;2022-11-20T05:46:06;0.90;99.90
52941;DHT22;62001;53.366;6.636;2022-11-20T05:48:33;0.90;99.90
52941;DHT22;62001;53.366;6.636;2022-11-20T05:51:00;0.90;99.90
52941;DHT22;62001;53.366;6.636;2022-11-20T05:53:27;0.90;99.90
52941;DHT22;62001;53.366;6.636;2022-11-20T05:56:03;0.90;99.90
52941;DHT22;62001;53.366;6.636;2022-11-20T05:58:31;0.90;99.90
52941;DHT22;62001;53.366;6.636;2022-11-20T06:01:08;1.00;99.90
52941;DHT22;62001;53.366;6.636;2022-11-20T06:03:35;1.00;99.90
52941;DHT22;62001;53.366;6.636;2022-11-20T06:06:01;1.00;99.90
52941;DHT22;62001;53.366;6.636;2022-11-20T06:08:28;1.00;99.90
52941;DHT22;62001;53.366;6.636;2022-11-20T06:10:54;1.00;99.90
52941;DHT22;62001;53.366;6.636;2022-11-20T06:13:20;1.00;99.90
52941;DHT22;62001;53.366;6.636;2022-11-20T06:15:53;1.00;99.90
52941;DHT22;62001;53.366;6.636;2022-11-20T06:18:19;1.00;99.90
52941;DHT22;62001;53.366;6.636;2022-11-20T06:20:45;1.00;99.90
52941;DHT22;62001;53.366;6.636;2022-11-20T06:23:12;1.00;99.90
52941;DHT22;62001;53.366;6.636;2022-11-20T06:25:39;1.00;99.90
52941;DHT22;62001;53.366;6.636;2022-11-20T06:28:05;1.00;99.90
52941;DHT22;62001;53.366;6.636;2022-11-20T06:30:31;1.00;99.90
52941;DHT22;62001;53.366;6.636;2022-11-20T06:32:57;1.00;99.90
52941;DHT22;62001;53.366;6.636;2022-11-20T06:35:23;1.00;99.90
52941;DHT22;62001;53.366;6.636;2022-11-20T06:37:48;1.00;99.90
52941;DHT22;62001;53.366;6.636;2022-11-20T06:40:14;1.00;99.90
52941;DHT22;62001;53.366;6.636;2022-11-20T06:42:40;1.00;99.90
52941;DHT22;62001;53.366;6.636;2022-11-20T06:45:06;1.00;99.90
52941;DHT22;62001;53.366;6.636;2022-11-20T06:47:32;1.10;99.90
52941;DHT22;62001;53.366;6.636;2022-11-20T06:49:58;1.10;99.90
52941;DHT22;62001;53.366;6.636;2022-11-20T06:52:24;1.10;99.90
52941;DHT22;62001;53.366;6.636;2022-11-20T06:54:50;1.10;99.90
52941;DHT22;62001;53.366;6.636;2022-11-20T06:57:16;1.10;99.90
52941;DHT22;62001;53.366;6.636;2022-11-20T06:59:41;1.20;99.90
52941;DHT22;62001;53.366;6.636;2022-11-20T07:02:11;1.10;99.90
52941;DHT22;62001;53.366;6.636;2022-11-20T07:04:38;1.20;99.90
52941;DHT22;62001;53.366;6.636;2022-11-20T07:07:04;1.20;99.90
52941;DHT22;62001;53.366;6.636;2022-11-20T07:09:32;1.20;99.90
52941;DHT22;62001;53.366;6.636;2022-11-20T07:11:59;1.30;99.90
52941;DHT22;62001;53.366;6.636;2022-11-20T07:14:24;1.30;99.90
52941;DHT22;62001;53.366;6.636;2022-11-20T07:16:50;1.30;99.90
52941;DHT22;62001;53.366;6.636;2022-11-20T07:19:16;1.40;99.90
52941;DHT22;62001;53.366;6.636;2022-11-20T07:21:42;1.30;99.90
52941;DHT22;62001;53.366;6.636;2022-11-20T07:24:08;1.30;99.90
52941;DHT22;62001;53.366;6.636;2022-11-20T07:26:33;1.30;99.90
52941;DHT22;62001;53.366;6.636;2022-11-20T07:28:59;1.30;99.90
52941;DHT22;62001;53.366;6.636;2022-11-20T07:31:25;1.30;99.90
52941;DHT22;62001;53.366;6.636;2022-11-20T07:33:51;1.30;99.90
52941;DHT22;62001;53.366;6.636;2022-11-20T07:36:17;1.30;99.90
52941;DHT22;62001;53.366;6.636;2022-11-20T07:38:42;1.30;99.90
52941;DHT22;62001;53.366;6.636;2022-11-20T07:41:08;1.30;99.90
52941;DHT22;62001;53.366;6.636;2022-11-20T07:43:34;1.40;99.90
52941;DHT22;62001;53.366;6.636;2022-11-20T07:46:00;1.40;99.90
52941;DHT22;62001;53.366;6.636;2022-11-20T07:48:26;1.40;99.90
52941;DHT22;62001;53.366;6.636;2022-11-20T07:50:55;1.40;99.90
52941;DHT22;62001;53.366;6.636;2022-11-20T07:53:21;1.50;99.90
52941;DHT22;62001;53.366;6.636;2022-11-20T07:55:47;1.50;99.90
52941;DHT22;62001;53.366;6.636;2022-11-20T07:58:13;1.50;99.90
52941;DHT22;62001;53.366;6.636;2022-11-20T08:00:40;1.50;99.90
52941;DHT22;62001;53.366;6.636;2022-11-20T08:03:06;1.50;99.90
52941;DHT22;62001;53.366;6.636;2022-11-20T08:05:32;1.50;99.90
52941;DHT22;62001;53.366;6.636;2022-11-20T08:07:58;1.50;99.90
52941;DHT22;62001;53.366;6.636;2022-11-20T08:10:24;1.50;99.90
52941;DHT22;62001;53.366;6.636;2022-11-20T08:12:52;1.50;99.90
52941;DHT22;62001;53.366;6.636;2022-11-20T08:15:38;1.50;99.90
52941;DHT22;62001;53.366;6.636;2022-11-20T08:18:06;1.50;99.90
52941;DHT22;62001;53.366;6.636;2022-11-20T08:20:33;1.50;99.90
52941;DHT22;62001;53.366;6.636;2022-11-20T08:23:04;1.50;99.90
52941;DHT22;62001;53.366;6.636;2022-11-20T08:25:31;1.50;99.90
52941;DHT22;62001;53.366;6.636;2022-11-20T08:28:01;1.50;99.90
52941;DHT22;62001;53.366;6.636;2022-11-20T08:30:28;1.50;99.90
52941;DHT22;62001;53.366;6.636;2022-11-20T08:32:54;1.60;99.90
52941;DHT22;62001;53.366;6.636;2022-11-20T08:35:23;1.60;99.90
52941;DHT22;62001;53.366;6.636;2022-11-20T08:37:49;1.70;99.90
52941;DHT22;62001;53.366;6.636;2022-11-20T08:40:15;1.70;99.90
52941;DHT22;62001;53.366;6.636;2022-11-20T08:42:48;1.70;99.90
52941;DHT22;62001;53.366;6.636;2022-11-20T08:45:15;1.80;99.90
52941;DHT22;62001;53.366;6.636;2022-11-20T08:47:41;1.80;99.90
52941;DHT22;62001;53.366;6.636;2022-11-20T08:50:11;1.80;99.90
52941;DHT22;62001;53.366;6.636;2022-11-20T08:52:37;1.90;99.90
52941;DHT22;62001;53.366;6.636;2022-11-20T08:55:04;1.80;99.90
52941;DHT22;62001;53.366;6.636;2022-11-20T08:57:36;1.90;99.90
52941;DHT22;62001;53.366;6.636;2022-11-20T09:00:04;1.90;99.90
52941;DHT22;62001;53.366;6.636;2022-11-20T09:02:31;1.90;99.90
52941;DHT22;62001;53.366;6.636;2022-11-20T09:04:58;2.00;99.90
52941;DHT22;62001;53.366;6.636;2022-11-20T09:07:24;2.00;99.90
52941;DHT22;62001;53.366;6.636;2022-11-20T09:09:49;2.10;99.90
52941;DHT22;62001;53.366;6.636;2022-11-20T09:12:15;2.10;99.90
52941;DHT22;62001;53.366;6.636;2022-11-20T09:14:41;2.20;99.90
52941;DHT22;62001;53.366;6.636;2022-11-20T09:17:09;2.20;99.90
52941;DHT22;62001;53.366;6.636;2022-11-20T09:19:34;2.30;99.90
52941;DHT22;62001;53.366;6.636;2022-11-20T09:22:00;2.30;99.90
52941;DHT22;62001;53.366;6.636;2022-11-20T09:24:27;2.40;99.90
52941;DHT22;62001;53.366;6.636;2022-11-20T09:26:53;2.50;99.90
52941;DHT22;62001;53.366;6.636;2022-11-20T09:29:19;2.50;99.90
52941;DHT22;62001;53.366;6.636;2022-11-20T09:31:44;2.60;99.90
52941;DHT22;62001;53.366;6.636;2022-11-20T09:34:10;2.70;99.90
52941;DHT22;62001;53.366;6.636;2022-11-20T09:36:36;2.70;99.90
52941;DHT22;62001;53.366;6.636;2022-11-20T09:39:02;2.70;99.90
52941;DHT22;62001;53.366;6.636;2022-11-20T09:47:06;2.90;99.90
52941;DHT22;62001;53.366;6.636;2022-11-20T09:55:34;2.90;99.90
52941;DHT22;62001;53.366;6.636;2022-11-20T09:58:02;2.90;99.90
52941;DHT22;62001;53.366;6.636;2022-11-20T10:00:31;2.90;99.90
52941;DHT22;62001;53.366;6.636;2022-11-20T10:03:06;2.90;99.90
52941;DHT22;62001;53.366;6.636;2022-11-20T10:05:46;2.90;99.90
52941;DHT22;62001;53.366;6.636;2022-11-20T10:08:22;2.90;99.90
52941;DHT22;62001;53.366;6.636;2022-11-20T10:25:13;3.10;99.90
52941;DHT22;62001;53.366;6.636;2022-11-20T10:28:09;3.10;99.90
52941;DHT22;62001;53.366;6.636;2022-11-20T10:30:44;3.10;99.90
52941;DHT22;62001;53.366;6.636;2022-11-20T10:38:28;3.30;99.90
52941;DHT22;62001;53.366;6.636;2022-11-20T10:41:02;3.30;99.90
52941;DHT22;62001;53.366;6.636;2022-11-20T10:43:52;3.30;99.90
52941;DHT22;62001;53.366;6.636;2022-11-20T10:46:22;3.30;99.90
52941;DHT22;62001;53.366;6.636;2022-11-20T10:48:48;3.40;99.90
52941;DHT22;62001;53.366;6.636;2022-11-20T10:51:37;3.40;99.90
52941;DHT22;62001;53.366;6.636;2022-11-20T10:54:15;3.50;99.90
52941;DHT22;62001;53.366;6.636;2022-11-20T10:56:47;3.50;99.90
52941;DHT22;62001;53.366;6.636;2022-11-20T11:02:24;3.60;99.90
52941;DHT22;62001;53.366;6.636;2022-11-20T11:04:55;3.50;99.90
52941;DHT22;62001;53.366;6.636;2022-11-20T11:07:27;3.50;99.90
52941;DHT22;62001;53.366;6.636;2022-11-20T11:09:56;3.50;99.90
52941;DHT22;62001;53.366;6.636;2022-11-20T11:12:25;3.50;99.90
52941;DHT22;62001;53.366;6.636;2022-11-20T11:14:53;3.40;99.90
52941;DHT22;62001;53.366;6.636;2022-11-20T11:17:23;3.30;99.90
52941;DHT22;62001;53.366;6.636;2022-11-20T11:20:20;3.20;99.90
52941;DHT22;62001;53.366;6.636;2022-11-20T11:22:52;3.10;99.90
52941;DHT22;62001;53.366;6.636;2022-11-20T11:25:32;3.00;99.90
52941;DHT22;62001;53.366;6.636;2022-11-20T11:30:44;3.10;99.90
52941;DHT22;62001;53.366;6.636;2022-11-20T11:33:18;3.30;99.90
52941;DHT22;62001;53.366;6.636;2022-11-20T11:35:49;3.40;99.90
52941;DHT22;62001;53.366;6.636;2022-11-20T11:38:43;3.60;99.90
52941;DHT22;62001;53.366;6.636;2022-11-20T11:41:15;3.80;99.90
52941;DHT22;62001;53.366;6.636;2022-11-20T11:43:53;3.90;99.90
52941;DHT22;62001;53.366;6.636;2022-11-20T11:46:39;4.00;99.90
52941;DHT22;62001;53.366;6.636;2022-11-20T11:54:58;4.20;99.90
52941;DHT22;62001;53.366;6.636;2022-11-20T12:00:05;4.30;99.90
52941;DHT22;62001;53.366;6.636;2022-11-20T12:05:21;4.20;99.90
52941;DHT22;62001;53.366;6.636;2022-11-20T12:10:44;4.10;99.90
52941;DHT22;62001;53.366;6.636;2022-11-20T12:13:37;4.00;99.90
52941;DHT22;62001;53.366;6.636;2022-11-20T12:16:05;3.80;99.90
52941;DHT22;62001;53.366;6.636;2022-11-20T12:18:31;3.70;99.90
52941;DHT22;62001;53.366;6.636;2022-11-20T12:23:47;3.50;99.90
52941;DHT22;62001;53.366;6.636;2022-11-20T12:35:01;3.20;99.90
52941;DHT22;62001;53.366;6.636;2022-11-20T12:43:22;3.10;99.90
52941;DHT22;62001;53.366;6.636;2022-11-20T12:46:16;3.20;99.90
52941;DHT22;62001;53.366;6.636;2022-11-20T12:56:37;3.20;99.90
52941;DHT22;62001;53.366;6.636;2022-11-20T12:59:38;3.30;99.90
52941;DHT22;62001;53.366;6.636;2022-11-20T13:05:09;3.30;99.90
52941;DHT22;62001;53.366;6.636;2022-11-20T13:07:37;3.30;99.90
52941;DHT22;62001;53.366;6.636;2022-11-20T13:10:04;3.20;99.90
52941;DHT22;62001;53.366;6.636;2022-11-20T13:12:50;3.20;99.90
52941;DHT22;62001;53.366;6.636;2022-11-20T13:15:50;3.20;99.90
52941;DHT22;62001;53.366;6.636;2022-11-20T13:18:19;3.20;99.90
52941;DHT22;62001;53.366;6.636;2022-11-20T13:20:46;3.20;99.90
52941;DHT22;62001;53.366;6.636;2022-11-20T13:23:23;3.20;99.90
52941;DHT22;62001;53.366;6.636;2022-11-20T13:25:50;3.20;99.90
52941;DHT22;62001;53.366;6.636;2022-11-20T13:30:54;3.20;99.90
52941;DHT22;62001;53.366;6.636;2022-11-20T13:33:32;3.20;99.90
52941;DHT22;62001;53.366;6.636;2022-11-20T13:36:19;3.30;99.90
52941;DHT22;62001;53.366;6.636;2022-11-20T13:38:52;3.30;99.90
52941;DHT22;62001;53.366;6.636;2022-11-20T13:41:33;3.30;99.90
52941;DHT22;62001;53.366;6.636;2022-11-20T13:44:36;3.40;99.90
52941;DHT22;62001;53.366;6.636;2022-11-20T13:47:03;3.40;99.90
52941;DHT22;62001;53.366;6.636;2022-11-20T13:49:31;3.40;99.90
52941;DHT22;62001;53.366;6.636;2022-11-20T14:00:21;3.30;99.90
52941;DHT22;62001;53.366;6.636;2022-11-20T14:03:01;3.30;99.90
52941;DHT22;62001;53.366;6.636;2022-11-20T14:05:56;3.20;99.90
52941;DHT22;62001;53.366;6.636;2022-11-20T14:08:36;3.20;99.90
52941;DHT22;62001;53.366;6.636;2022-11-20T14:11:30;3.20;99.90
52941;DHT22;62001;53.366;6.636;2022-11-20T14:16:27;3.10;99.90
52941;DHT22;62001;53.366;6.636;2022-11-20T14:18:54;3.10;99.90
52941;DHT22;62001;53.366;6.636;2022-11-20T14:21:28;3.00;99.90
52941;DHT22;62001;53.366;6.636;2022-11-20T14:24:05;3.00;99.90
52941;DHT22;62001;53.366;6.636;2022-11-20T14:26:31;2.90;99.90
52941;DHT22;62001;53.366;6.636;2022-11-20T14:28:57;2.80;99.90
52941;DHT22;62001;53.366;6.636;2022-11-20T14:31:25;2.80;99.90
52941;DHT22;62001;53.366;6.636;2022-11-20T14:33:53;2.70;99.90
52941;DHT22;62001;53.366;6.636;2022-11-20T14:36:24;2.60;99.90
52941;DHT22;62001;53.366;6.636;2022-11-20T14:38:51;2.50;99.90
52941;DHT22;62001;53.366;6.636;2022-11-20T14:41:20;2.40;99.90
52941;DHT22;62001;53.366;6.636;2022-11-20T14:43:56;2.40;99.90
52941;DHT22;62001;53.366;6.636;2022-11-20T14:46:23;2.30;99.90
52941;DHT22;62001;53.366;6.636;2022-11-20T14:48:56;2.30;99.90
52941;DHT22;62001;53.366;6.636;2022-11-20T14:51:37;2.20;99.90
52941;DHT22;62001;53.366;6.636;2022-11-20T14:54:15;2.20;99.90
52941;DHT22;62001;53.366;6.636;2022-11-20T14:56:42;2.20;99.90
52941;DHT22;62001;53.366;6.636;2022-11-20T14:59:23;2.10;99.90
52941;DHT22;62001;53.366;6.636;2022-11-20T15:02:04;2.10;99.90
52941;DHT22;62001;53.366;6.636;2022-11-20T15:04:31;2.10;99.90
52941;DHT22;62001;53.366;6.636;2022-11-20T15:06:58;2.00;99.90
52941;DHT22;62001;53.366;6.636;2022-11-20T15:09:25;2.00;99.90
52941;DHT22;62001;53.366;6.636;2022-11-20T15:11:59;1.90;99.90
52941;DHT22;62001;53.366;6.636;2022-11-20T15:14:27;1.90;99.90
52941;DHT22;62001;53.366;6.636;2022-11-20T15:16:53;1.90;99.90
52941;DHT22;62001;53.366;6.636;2022-11-20T15:19:21;1.80;99.90
52941;DHT22;62001;53.366;6.636;2022-11-20T15:21:48;1.80;99.90
52941;DHT22;62001;53.366;6.636;2022-11-20T15:24:15;1.70;99.90
52941;DHT22;62001;53.366;6.636;2022-11-20T15:26:41;1.80;99.90
52941;DHT22;62001;53.366;6.636;2022-11-20T15:29:15;1.70;99.90
52941;DHT22;62001;53.366;6.636;2022-11-20T15:31:44;1.70;99.90
52941;DHT22;62001;53.366;6.636;2022-11-20T15:34:15;1.60;99.90
52941;DHT22;62001;53.366;6.636;2022-11-20T15:36:41;1.60;99.90
52941;DHT22;62001;53.366;6.636;2022-11-20T15:39:08;1.50;99.90
52941;DHT22;62001;53.366;6.636;2022-11-20T15:41:35;1.50;99.90
52941;DHT22;62001;53.366;6.636;2022-11-20T15:44:02;1.40;99.90
52941;DHT22;62001;53.366;6.636;2022-11-20T15:46:33;1.40;99.90
52941;DHT22;62001;53.366;6.636;2022-11-20T15:49:05;1.30;99.90
52941;DHT22;62001;53.366;6.636;2022-11-20T15:53:58;1.20;99.90
52941;DHT22;62001;53.366;6.636;2022-11-20T15:56:25;1.10;99.90
52941;DHT22;62001;53.366;6.636;2022-11-20T15:58:51;1.10;99.90
52941;DHT22;62001;53.366;6.636;2022-11-20T16:01:19;1.10;99.90
52941;DHT22;62001;53.366;6.636;2022-11-20T16:03:45;1.20;99.90
52941;DHT22;62001;53.366;6.636;2022-11-20T16:06:12;1.20;99.90
52941;DHT22;62001;53.366;6.636;2022-11-20T16:08:38;1.20;99.90
52941;DHT22;62001;53.366;6.636;2022-11-20T16:11:04;1.30;99.90
52941;DHT22;62001;53.366;6.636;2022-11-20T16:13:31;1.30;99.90
52941;DHT22;62001;53.366;6.636;2022-11-20T16:16:25;1.30;99.90
52941;DHT22;62001;53.366;6.636;2022-11-20T16:18:54;1.30;99.90
52941;DHT22;62001;53.366;6.636;2022-11-20T16:21:20;1.30;99.90
52941;DHT22;62001;53.366;6.636;2022-11-20T16:23:46;1.30;99.90
52941;DHT22;62001;53.366;6.636;2022-11-20T16:26:14;1.30;99.90
52941;DHT22;62001;53.366;6.636;2022-11-20T16:28:40;1.30;99.90
52941;DHT22;62001;53.366;6.636;2022-11-20T16:31:11;1.30;99.90
52941;DHT22;62001;53.366;6.636;2022-11-20T16:33:37;1.30;99.90
52941;DHT22;62001;53.366;6.636;2022-11-20T16:36:23;1.30;99.90
52941;DHT22;62001;53.366;6.636;2022-11-20T16:38:53;1.30;99.90
52941;DHT22;62001;53.366;6.636;2022-11-20T16:41:20;1.30;99.90
52941;DHT22;62001;53.366;6.636;2022-11-20T16:43:54;1.30;99.90
52941;DHT22;62001;53.366;6.636;2022-11-20T16:46:23;1.30;99.90
52941;DHT22;62001;53.366;6.636;2022-11-20T16:48:59;1.30;99.90
52941;DHT22;62001;53.366;6.636;2022-11-20T16:51:27;1.30;99.90
52941;DHT22;62001;53.366;6.636;2022-11-20T16:53:54;1.30;99.90
52941;DHT22;62001;53.366;6.636;2022-11-20T16:56:23;1.30;99.90
52941;DHT22;62001;53.366;6.636;2022-11-20T16:58:50;1.30;99.90
52941;DHT22;62001;53.366;6.636;2022-11-20T17:01:18;1.30;99.90
52941;DHT22;62001;53.366;6.636;2022-11-20T17:03:50;1.30;99.90
52941;DHT22;62001;53.366;6.636;2022-11-20T17:06:20;1.30;99.90
52941;DHT22;62001;53.366;6.636;2022-11-20T17:08:46;1.30;99.90
52941;DHT22;62001;53.366;6.636;2022-11-20T17:11:15;1.30;99.90
52941;DHT22;62001;53.366;6.636;2022-11-20T17:13:41;1.30;99.90
52941;DHT22;62001;53.366;6.636;2022-11-20T17:16:12;1.30;99.90
52941;DHT22;62001;53.366;6.636;2022-11-20T17:18:39;1.30;99.90
52941;DHT22;62001;53.366;6.636;2022-11-20T17:21:05;1.30;99.90
52941;DHT22;62001;53.366;6.636;2022-11-20T17:23:33;1.30;99.90
52941;DHT22;62001;53.366;6.636;2022-11-20T17:26:01;1.30;99.90
52941;DHT22;62001;53.366;6.636;2022-11-20T17:28:28;1.30;99.90
52941;DHT22;62001;53.366;6.636;2022-11-20T17:30:59;1.30;99.90
52941;DHT22;62001;53.366;6.636;2022-11-20T17:33:25;1.30;99.90
52941;DHT22;62001;53.366;6.636;2022-11-20T17:35:51;1.30;99.90
52941;DHT22;62001;53.366;6.636;2022-11-20T17:38:16;1.30;99.90
52941;DHT22;62001;53.366;6.636;2022-11-20T17:40:42;1.30;99.90